createdAt,value
2017-05-23T00:02:18.981Z,69.00
2017-05-23T00:04:45.681Z,68.60
2017-05-23T00:07:12.377Z,68.30
2017-05-23T00:09:39.109Z,69.40
2017-05-23T00:12:05.806Z,69.10
2017-05-23T00:14:32.484Z,69.20
2017-05-23T00:16:59.212Z,70.00
2017-05-23T00:19:25.891Z,69.20
2017-05-23T00:21:52.626Z,69.70
2017-05-23T00:24:19.407Z,69.90
2017-05-23T00:26:46.089Z,70.20
2017-05-23T00:29:12.765Z,69.70
2017-05-23T00:31:47.227Z,70.60
2017-05-23T00:34:13.926Z,70.60
2017-05-23T00:36:40.672Z,71.00
2017-05-23T00:39:07.353Z,71.90
2017-05-23T00:41:34.042Z,72.90
2017-05-23T00:44:00.942Z,72.00
2017-05-23T00:46:27.634Z,72.60
2017-05-23T00:48:54.330Z,72.70
2017-05-23T00:51:21.086Z,73.00
2017-05-23T00:53:47.789Z,72.50
2017-05-23T00:56:14.480Z,73.10
2017-05-23T00:58:41.210Z,72.60
2017-05-23T01:01:07.894Z,73.00
2017-05-23T01:03:34.613Z,74.20
2017-05-23T01:06:01.346Z,74.40
2017-05-23T01:08:28.255Z,73.60
2017-05-23T01:10:54.966Z,74.20
2017-05-23T01:13:21.706Z,73.40
2017-05-23T01:15:48.462Z,75.00
2017-05-23T01:18:15.149Z,73.80
2017-05-23T01:20:41.878Z,73.90
2017-05-23T01:23:08.566Z,74.50
2017-05-23T01:25:35.249Z,74.50
2017-05-23T01:28:01.972Z,75.10
2017-05-23T01:30:28.638Z,75.70
2017-05-23T01:32:55.329Z,75.40
2017-05-23T01:35:22.070Z,75.90
2017-05-23T01:37:48.781Z,76.60
2017-05-23T01:40:15.501Z,75.70
2017-05-23T01:42:42.222Z,75.40
2017-05-23T01:45:08.895Z,75.70
2017-05-23T01:47:35.570Z,75.50
2017-05-23T01:50:02.306Z,75.40
2017-05-23T01:52:28.994Z,76.00
2017-05-23T01:54:55.743Z,75.90
2017-05-23T01:57:22.502Z,76.60
2017-05-23T01:59:49.292Z,76.60
2017-05-23T02:02:16.042Z,77.20
2017-05-23T02:04:42.782Z,76.60
2017-05-23T02:07:09.467Z,76.60
2017-05-23T02:09:36.197Z,78.40
2017-05-23T02:12:02.921Z,76.80
2017-05-23T02:14:29.614Z,77.20
2017-05-23T02:16:56.362Z,77.00
2017-05-23T02:19:23.073Z,77.10
2017-05-23T02:21:49.892Z,77.50
2017-05-23T02:24:16.714Z,77.10
2017-05-23T02:26:43.401Z,77.10
2017-05-23T02:29:10.107Z,77.90
2017-05-23T02:31:36.840Z,77.50
2017-05-23T02:34:03.538Z,77.70
2017-05-23T02:36:30.262Z,77.70
2017-05-23T02:38:56.956Z,78.00
2017-05-23T02:41:23.696Z,78.80
2017-05-23T02:43:50.417Z,78.80
2017-05-23T02:46:17.114Z,78.30
2017-05-23T02:48:43.834Z,78.80
2017-05-23T02:51:10.565Z,78.50
2017-05-23T02:53:37.249Z,79.70
2017-05-23T02:56:03.931Z,80.70
2017-05-23T02:58:30.667Z,80.20
2017-05-23T03:00:57.353Z,79.30
2017-05-23T03:03:24.057Z,79.80
2017-05-23T03:05:50.829Z,81.10
2017-05-23T03:08:17.538Z,79.50
2017-05-23T03:10:44.223Z,80.60
2017-05-23T03:13:10.936Z,80.40
2017-05-23T03:15:37.658Z,80.00
2017-05-23T03:18:04.370Z,79.60
2017-05-23T03:20:31.069Z,80.60
2017-05-23T03:22:57.798Z,80.60
2017-05-23T03:25:24.484Z,82.50
2017-05-23T03:27:51.173Z,82.80
2017-05-23T03:30:17.958Z,82.60
2017-05-23T03:32:44.645Z,82.60
2017-05-23T03:35:11.374Z,81.60
2017-05-23T03:37:38.066Z,81.40
2017-05-23T03:40:04.746Z,83.00
2017-05-23T03:42:31.500Z,82.40
2017-05-23T03:44:58.185Z,82.00
2017-05-23T03:47:24.909Z,82.30
2017-05-23T03:49:51.650Z,82.90
2017-05-23T03:52:18.402Z,82.10
2017-05-23T03:54:45.083Z,82.30
2017-05-23T03:57:11.769Z,82.50
2017-05-23T03:59:38.489Z,81.70
2017-05-23T04:02:05.166Z,82.90
2017-05-23T04:04:31.916Z,83.20
2017-05-23T04:06:58.606Z,82.90
2017-05-23T04:09:25.314Z,83.50
2017-05-23T04:11:52.118Z,83.30
2017-05-23T04:14:18.845Z,83.70
2017-05-23T04:16:45.570Z,83.30
2017-05-23T04:19:12.293Z,82.80
2017-05-23T04:21:38.973Z,83.30
2017-05-23T04:24:05.662Z,82.80
2017-05-23T04:26:32.385Z,82.60
2017-05-23T04:28:59.117Z,83.00
2017-05-23T04:31:25.801Z,83.30
2017-05-23T04:33:52.615Z,83.30
2017-05-23T04:36:19.327Z,83.50
2017-05-23T04:38:46.013Z,83.40
2017-05-23T04:41:12.754Z,82.80
2017-05-23T04:43:39.433Z,83.10
2017-05-23T04:46:06.145Z,83.10
2017-05-23T04:48:32.861Z,83.30
2017-05-23T04:50:59.555Z,83.10
2017-05-23T04:53:26.281Z,83.40
2017-05-23T04:55:52.990Z,83.40
2017-05-23T04:58:19.682Z,82.80
2017-05-23T05:00:46.405Z,82.50
2017-05-23T05:03:13.090Z,83.30
2017-05-23T05:05:39.827Z,82.40
2017-05-23T05:08:06.522Z,82.20
2017-05-23T05:10:33.286Z,82.00
2017-05-23T05:12:59.982Z,81.40
2017-05-23T05:15:26.749Z,82.10
2017-05-23T05:17:53.518Z,82.40
2017-05-23T05:20:20.224Z,82.10
2017-05-23T05:22:46.918Z,81.60
2017-05-23T05:25:13.637Z,82.00
2017-05-23T05:27:40.320Z,83.40
2017-05-23T05:30:14.101Z,82.60
2017-05-23T05:32:40.800Z,83.60
2017-05-23T05:35:07.489Z,81.90
2017-05-23T05:37:34.293Z,82.50
2017-05-23T05:40:01.042Z,82.30
2017-05-23T05:42:27.914Z,81.30
2017-05-23T05:44:54.649Z,80.50
2017-05-23T05:47:21.354Z,81.20
2017-05-23T05:49:48.085Z,80.60
2017-05-23T05:52:14.769Z,80.90
2017-05-23T05:54:41.462Z,80.80
2017-05-23T05:57:08.180Z,78.90
2017-05-23T05:59:34.900Z,79.30
2017-05-23T06:02:01.938Z,79.30
2017-05-23T06:04:28.623Z,79.70
2017-05-23T06:06:55.337Z,79.70
2017-05-23T06:09:22.111Z,80.50
2017-05-23T06:11:48.809Z,79.80
2017-05-23T06:14:21.681Z,78.80
2017-05-23T06:16:48.453Z,78.30
2017-05-23T06:19:15.137Z,80.00
2017-05-23T06:21:41.837Z,79.00
2017-05-23T06:24:08.568Z,78.20
2017-05-23T06:26:35.263Z,78.40
2017-05-23T06:29:01.984Z,78.00
2017-05-23T06:31:28.705Z,77.40
2017-05-23T06:33:55.423Z,78.80
2017-05-23T06:36:22.156Z,77.90
2017-05-23T06:38:48.850Z,77.20
2017-05-23T06:41:15.561Z,76.30
2017-05-23T06:43:42.274Z,76.70
2017-05-23T06:46:08.993Z,76.00
2017-05-23T06:48:35.673Z,76.40
2017-05-23T06:51:02.397Z,74.40
2017-05-23T06:53:29.081Z,73.70
2017-05-23T06:55:55.825Z,72.70
2017-05-23T06:58:22.518Z,72.40
2017-05-23T07:00:49.229Z,73.10
2017-05-23T07:03:15.949Z,71.10
2017-05-23T07:05:42.631Z,70.20
2017-05-23T07:08:09.354Z,70.20
2017-05-23T07:10:36.082Z,69.20
2017-05-23T07:13:02.759Z,68.80
2017-05-23T07:15:29.473Z,70.40
2017-05-23T07:17:56.234Z,69.70
2017-05-23T07:20:23.008Z,68.70
2017-05-23T07:22:49.692Z,70.40
2017-05-23T07:25:16.398Z,69.60
2017-05-23T07:27:43.133Z,69.10
2017-05-23T07:30:09.818Z,66.70
2017-05-23T07:32:36.502Z,68.30
2017-05-23T07:35:03.220Z,69.20
2017-05-23T07:37:29.902Z,69.50
2017-05-23T07:39:56.593Z,68.60
2017-05-23T07:42:23.330Z,66.80
2017-05-23T07:44:50.897Z,66.00
2017-05-23T07:47:17.630Z,65.80
2017-05-23T07:49:44.339Z,66.60
2017-05-23T07:52:11.026Z,65.70
2017-05-23T07:54:37.754Z,65.80
2017-05-23T07:57:04.457Z,62.60
2017-05-23T07:59:31.146Z,63.80
2017-05-23T08:01:57.878Z,63.30
2017-05-23T08:04:24.581Z,63.60
2017-05-23T08:06:51.302Z,64.60
2017-05-23T08:09:17.991Z,59.40
2017-05-23T08:11:44.730Z,58.60
2017-05-23T08:14:11.413Z,58.30
2017-05-23T08:16:38.098Z,58.80
2017-05-23T08:19:04.866Z,58.50
2017-05-23T08:21:31.557Z,57.60
2017-05-23T08:23:58.290Z,58.70
2017-05-23T08:26:25.005Z,57.80
2017-05-23T08:28:51.725Z,57.00
2017-05-23T08:31:18.423Z,57.40
2017-05-23T08:33:45.142Z,55.20
2017-05-23T08:36:11.829Z,56.40
2017-05-23T08:38:38.542Z,54.20
2017-05-23T08:41:05.266Z,53.90
2017-05-23T08:43:31.987Z,54.70
2017-05-23T08:45:58.750Z,52.90
2017-05-23T08:48:25.485Z,53.80
2017-05-23T08:50:52.192Z,53.60
2017-05-23T08:53:18.910Z,54.60
2017-05-23T08:55:45.605Z,56.00
2017-05-23T08:58:12.369Z,55.30
2017-05-23T09:00:39.081Z,55.10
2017-05-23T09:03:05.765Z,55.20
2017-05-23T09:05:32.489Z,53.10
2017-05-23T09:07:59.213Z,54.90
2017-05-23T09:10:25.962Z,54.80
2017-05-23T09:12:52.667Z,52.70
2017-05-23T09:15:19.369Z,53.30
2017-05-23T09:17:46.117Z,51.30
2017-05-23T09:20:12.798Z,50.50
2017-05-23T09:22:39.541Z,50.70
2017-05-23T09:25:12.425Z,50.20
2017-05-23T09:27:43.157Z,49.90
2017-05-23T09:30:09.882Z,48.80
2017-05-23T09:32:36.566Z,48.60
2017-05-23T09:35:03.293Z,47.50
2017-05-23T09:37:29.973Z,46.70
2017-05-23T09:39:56.715Z,47.30
2017-05-23T09:42:23.426Z,46.80
2017-05-23T09:44:50.478Z,46.90
2017-05-23T09:47:17.174Z,47.20
2017-05-23T09:49:43.871Z,47.60
2017-05-23T09:52:10.589Z,47.90
2017-05-23T09:54:37.274Z,47.60
2017-05-23T09:57:04.021Z,47.60
2017-05-23T09:59:30.707Z,48.30
2017-05-23T10:01:57.417Z,49.00
2017-05-23T10:04:24.161Z,46.60
2017-05-23T10:06:50.849Z,45.80
2017-05-23T10:09:17.533Z,46.60
2017-05-23T10:11:44.263Z,44.90
2017-05-23T10:14:10.946Z,45.20
2017-05-23T10:16:37.658Z,44.70
2017-05-23T10:19:04.415Z,44.80
2017-05-23T10:21:31.129Z,45.50
2017-05-23T10:23:57.839Z,44.30
2017-05-23T10:26:24.567Z,44.40
2017-05-23T10:28:51.290Z,45.30
2017-05-23T10:31:18.011Z,45.60
2017-05-23T10:33:44.694Z,44.80
2017-05-23T10:36:11.434Z,44.20
2017-05-23T10:38:38.115Z,44.30
2017-05-23T10:41:04.798Z,45.70
2017-05-23T10:43:31.538Z,43.70
2017-05-23T10:45:58.237Z,43.80
2017-05-23T10:48:24.934Z,43.40
2017-05-23T10:50:51.703Z,43.30
2017-05-23T10:53:18.394Z,43.60
2017-05-23T10:55:45.081Z,43.70
2017-05-23T10:58:11.808Z,44.90
2017-05-23T11:00:38.493Z,42.70
2017-05-23T11:03:05.233Z,41.90
2017-05-23T11:05:31.922Z,42.60
2017-05-23T11:07:58.610Z,41.90
2017-05-23T11:10:25.353Z,42.10
2017-05-23T11:12:52.053Z,42.90
2017-05-23T11:15:18.786Z,41.60
2017-05-23T11:17:45.505Z,41.30
2017-05-23T11:20:12.193Z,42.00
2017-05-23T11:22:38.905Z,41.50
2017-05-23T11:25:05.622Z,41.80
2017-05-23T11:27:32.350Z,41.30
2017-05-23T11:29:59.043Z,41.10
2017-05-23T11:32:25.746Z,40.30
2017-05-23T11:34:52.494Z,41.00
2017-05-23T11:37:19.187Z,41.40
2017-05-23T11:39:45.886Z,41.20
2017-05-23T11:42:12.609Z,41.40
2017-05-23T11:44:39.301Z,41.10
2017-05-23T11:47:06.000Z,41.40
2017-05-23T11:49:32.713Z,40.90
2017-05-23T11:51:59.458Z,40.90
2017-05-23T11:54:26.164Z,40.10
2017-05-23T11:56:52.866Z,40.60
2017-05-23T11:59:19.586Z,40.00
2017-05-23T12:01:46.279Z,38.80
2017-05-23T12:04:13.005Z,39.00
2017-05-23T12:06:39.689Z,39.10
2017-05-23T12:09:06.421Z,36.70
2017-05-23T12:11:33.129Z,37.20
2017-05-23T12:13:59.821Z,37.70
2017-05-23T12:16:26.590Z,36.00
2017-05-23T12:18:53.322Z,34.80
2017-05-23T12:21:20.069Z,33.30
2017-05-23T12:23:46.755Z,31.90
2017-05-23T12:26:13.446Z,29.30
2017-05-23T12:28:40.162Z,27.90
2017-05-23T12:31:06.853Z,26.40
2017-05-23T12:33:33.593Z,24.70
2017-05-23T12:36:00.286Z,24.50
2017-05-23T12:38:27.010Z,23.20
2017-05-23T12:40:53.761Z,23.20
2017-05-23T12:43:20.459Z,21.80
2017-05-23T12:45:47.193Z,22.30
2017-05-23T12:48:13.885Z,21.60
2017-05-23T12:50:40.605Z,21.20
2017-05-23T12:53:07.329Z,21.30
2017-05-23T12:55:34.017Z,21.10
2017-05-23T12:58:00.750Z,21.30
2017-05-23T13:00:27.449Z,21.30
2017-05-23T13:02:54.158Z,21.50
2017-05-23T13:05:20.898Z,22.30
2017-05-23T13:07:47.838Z,22.80
2017-05-23T13:10:14.576Z,22.80
2017-05-23T13:12:41.286Z,23.30
2017-05-23T13:15:07.974Z,23.50
2017-05-23T13:17:34.692Z,23.10
2017-05-23T13:20:01.415Z,22.70
2017-05-23T13:22:28.449Z,22.10
2017-05-23T13:24:55.148Z,21.90
2017-05-23T13:27:21.893Z,22.20
2017-05-23T13:29:48.633Z,21.90
2017-05-23T13:32:15.321Z,21.50
2017-05-23T13:34:42.018Z,21.40
2017-05-23T13:37:08.742Z,20.50
2017-05-23T13:39:35.452Z,20.80
2017-05-23T13:42:02.143Z,21.10
2017-05-23T13:44:28.869Z,21.20
2017-05-23T13:46:55.599Z,22.40
2017-05-23T13:49:22.306Z,23.10
2017-05-23T13:51:49.040Z,24.00
2017-05-23T13:54:15.722Z,25.10
2017-05-23T13:56:42.409Z,26.70
2017-05-23T13:59:09.142Z,25.80
2017-05-23T14:01:35.865Z,25.90
2017-05-23T14:04:02.600Z,26.30
2017-05-23T14:06:29.289Z,27.10
2017-05-23T14:08:56.527Z,27.70
2017-05-23T14:11:23.305Z,27.50
2017-05-23T14:13:51.431Z,27.50
2017-05-23T14:16:18.149Z,27.70
2017-05-23T14:18:45.540Z,26.70
2017-05-23T14:21:14.077Z,26.60
2017-05-23T14:23:41.433Z,27.40
2017-05-23T14:26:08.251Z,28.70
2017-05-23T14:28:34.934Z,27.40
2017-05-23T14:31:01.618Z,28.00
2017-05-23T14:33:28.377Z,26.20
2017-05-23T14:35:55.126Z,25.20
2017-05-23T14:38:21.991Z,25.10
2017-05-23T14:40:48.722Z,24.70
2017-05-23T14:43:15.753Z,25.30
2017-05-23T14:45:42.485Z,24.40
2017-05-23T14:48:09.166Z,24.10
2017-05-23T14:50:35.848Z,24.40
2017-05-23T14:53:02.569Z,24.90
2017-05-23T14:55:29.461Z,24.10
2017-05-23T14:57:56.836Z,24.60
2017-05-23T15:00:23.539Z,25.10
2017-05-23T15:02:50.250Z,25.00
2017-05-23T15:05:16.994Z,25.40
2017-05-23T15:07:43.691Z,24.30
2017-05-23T15:10:10.421Z,24.60
2017-05-23T15:12:37.165Z,24.10
2017-05-23T15:15:03.893Z,24.50
2017-05-23T15:17:30.590Z,24.70
2017-05-23T15:19:57.332Z,25.10
2017-05-23T15:22:24.074Z,25.30
2017-05-23T15:24:50.789Z,25.80
2017-05-23T15:27:20.889Z,26.70
2017-05-23T15:29:47.574Z,27.10
2017-05-23T15:32:14.277Z,27.20
2017-05-23T15:34:41.054Z,27.60
2017-05-23T15:37:07.745Z,28.00
2017-05-23T15:39:34.429Z,29.00
2017-05-23T15:42:01.514Z,29.50
2017-05-23T15:44:28.196Z,29.60
2017-05-23T15:46:54.881Z,30.20
2017-05-23T15:49:21.609Z,30.00
2017-05-23T15:51:49.353Z,29.80
2017-05-23T15:54:16.094Z,31.10
2017-05-23T15:56:42.799Z,31.90
2017-05-23T15:59:09.481Z,32.00
2017-05-23T16:01:36.213Z,32.50
2017-05-23T16:04:02.893Z,33.00
2017-05-23T16:06:29.579Z,32.90
2017-05-23T16:08:56.306Z,33.60
2017-05-23T16:11:23.045Z,33.80
2017-05-23T16:13:49.733Z,34.00
2017-05-23T16:16:16.429Z,34.40
2017-05-23T16:18:43.161Z,34.60
2017-05-23T16:21:09.890Z,34.40
2017-05-23T16:23:36.627Z,35.00
2017-05-23T16:26:03.313Z,35.40
2017-05-23T16:28:29.999Z,35.40
2017-05-23T16:30:56.734Z,35.10
2017-05-23T16:33:23.421Z,36.30
2017-05-23T16:35:50.109Z,36.80
2017-05-23T16:38:16.851Z,37.30
2017-05-23T16:40:43.630Z,37.50
2017-05-23T16:43:10.364Z,37.50
2017-05-23T16:45:37.097Z,37.70
2017-05-23T16:48:03.785Z,37.80
2017-05-23T16:50:30.524Z,38.10
2017-05-23T16:52:57.209Z,38.20
2017-05-23T16:55:23.894Z,39.00
2017-05-23T16:57:50.630Z,39.30
2017-05-23T17:00:17.321Z,39.70
2017-05-23T17:02:44.022Z,39.90
2017-05-23T17:05:10.818Z,39.80
2017-05-23T17:07:37.506Z,40.50
2017-05-23T17:10:04.198Z,41.10
2017-05-23T17:12:30.926Z,40.80
2017-05-23T17:17:31.066Z,42.10
2017-05-23T17:19:57.793Z,42.10
2017-05-23T17:22:24.544Z,42.50
2017-05-23T17:24:51.294Z,42.70
2017-05-23T17:27:17.978Z,42.80
2017-05-23T17:29:44.682Z,42.30
2017-05-23T17:32:11.438Z,42.50
2017-05-23T17:34:38.122Z,41.70
2017-05-23T17:37:04.818Z,41.60
2017-05-23T17:39:31.549Z,41.70
2017-05-23T17:41:58.242Z,41.90
2017-05-23T17:44:25.026Z,41.40
2017-05-23T17:46:51.721Z,41.50
2017-05-23T17:49:18.402Z,42.10
2017-05-23T17:51:45.126Z,42.50
2017-05-23T17:54:11.834Z,42.40
2017-05-23T17:56:38.562Z,42.70
2017-05-23T17:59:05.249Z,42.90
2017-05-23T18:01:31.969Z,43.20
2017-05-23T18:03:58.657Z,43.00
2017-05-23T18:06:25.410Z,43.60
2017-05-23T18:08:52.094Z,43.90
2017-05-23T18:11:18.769Z,44.10
2017-05-23T18:13:45.497Z,44.60
2017-05-23T18:16:12.206Z,44.70
2017-05-23T18:18:38.898Z,44.70
2017-05-23T18:21:05.670Z,44.80
2017-05-23T18:23:32.362Z,45.30
2017-05-23T18:25:59.085Z,45.40
2017-05-23T18:28:25.796Z,45.50
2017-05-23T18:30:52.529Z,45.80
2017-05-23T18:33:19.211Z,45.90
2017-05-23T18:35:45.909Z,45.90
2017-05-23T18:38:12.685Z,46.20
2017-05-23T18:40:39.373Z,46.30
2017-05-23T18:43:06.100Z,46.50
2017-05-23T18:45:32.785Z,46.60
2017-05-23T18:47:59.479Z,46.80
2017-05-23T18:50:26.213Z,46.90
2017-05-23T18:52:52.898Z,46.80
2017-05-23T18:55:19.586Z,46.90
2017-05-23T18:57:46.338Z,47.20
2017-05-23T19:00:13.039Z,47.40
2017-05-23T19:02:39.729Z,47.60
2017-05-23T19:05:06.468Z,47.50
2017-05-23T19:07:33.157Z,48.10
2017-05-23T19:09:59.890Z,48.80
2017-05-23T19:12:26.574Z,48.90
2017-05-23T19:14:53.270Z,49.10
2017-05-23T19:17:19.997Z,49.70
2017-05-23T19:19:46.722Z,49.90
2017-05-23T19:22:13.422Z,49.80
2017-05-23T19:24:40.152Z,50.90
2017-05-23T19:27:06.881Z,50.80
2017-05-23T19:29:33.605Z,50.60
2017-05-23T19:32:00.330Z,51.10
2017-05-23T19:34:27.014Z,51.30
2017-05-23T19:36:53.752Z,50.20
2017-05-23T19:39:21.677Z,49.30
2017-05-23T19:41:48.364Z,49.70
2017-05-23T19:44:15.106Z,49.50
2017-05-23T19:46:41.854Z,49.60
2017-05-23T19:49:08.545Z,50.70
2017-05-23T19:51:35.266Z,51.10
2017-05-23T19:54:01.965Z,52.40
2017-05-23T19:56:28.693Z,52.00
2017-05-23T19:58:55.418Z,53.30
2017-05-23T20:01:22.157Z,53.00
2017-05-23T20:03:48.838Z,53.00
2017-05-23T20:06:15.541Z,54.20
2017-05-23T20:08:42.311Z,54.50
2017-05-23T20:11:09.006Z,54.70
2017-05-23T20:13:35.699Z,54.50
2017-05-23T20:16:02.435Z,54.70
2017-05-23T20:18:29.504Z,54.30
2017-05-23T20:20:56.195Z,54.40
2017-05-23T20:23:22.950Z,54.60
2017-05-23T20:25:49.634Z,54.00
2017-05-23T20:28:16.333Z,54.40
2017-05-23T20:30:43.136Z,53.20
2017-05-23T20:33:09.814Z,53.40
2017-05-23T20:35:36.502Z,52.90
2017-05-23T20:38:03.225Z,53.10
2017-05-23T20:40:30.004Z,53.90
2017-05-23T20:42:56.685Z,54.90
2017-05-23T20:45:23.421Z,56.10
2017-05-23T20:47:50.113Z,57.20
2017-05-23T20:50:16.081Z,57.20
2017-05-23T20:52:43.116Z,58.40
2017-05-23T20:55:09.809Z,59.10
2017-05-23T20:57:36.534Z,59.90
2017-05-23T21:00:03.266Z,60.60
2017-05-23T21:02:30.001Z,61.30
2017-05-23T21:04:56.694Z,62.60
2017-05-23T21:07:23.433Z,64.20
2017-05-23T21:09:50.126Z,65.40
2017-05-23T21:12:16.846Z,66.40
2017-05-23T21:14:43.593Z,67.60
2017-05-23T21:17:10.348Z,68.60
2017-05-23T21:19:37.091Z,69.10
2017-05-23T21:22:03.821Z,70.00
2017-05-23T21:24:30.505Z,70.40
2017-05-23T21:26:57.218Z,70.80
2017-05-23T21:29:23.898Z,71.20
2017-05-23T21:31:50.618Z,71.70
2017-05-23T21:34:17.305Z,71.90
2017-05-23T21:36:44.006Z,72.40
2017-05-23T21:39:10.780Z,71.80
2017-05-23T21:41:37.471Z,71.90
2017-05-23T21:44:03.411Z,71.90
2017-05-23T21:46:30.141Z,72.40
2017-05-23T21:48:56.829Z,71.20
2017-05-23T21:51:23.565Z,72.00
2017-05-23T21:53:50.253Z,72.70
2017-05-23T21:56:16.950Z,72.60
2017-05-23T21:58:43.690Z,72.70
2017-05-23T22:01:10.471Z,72.90
2017-05-23T22:03:43.431Z,72.80
2017-05-23T22:06:10.163Z,72.90
2017-05-23T22:08:36.858Z,73.00
2017-05-23T22:11:03.545Z,72.70
2017-05-23T22:13:30.276Z,72.20
2017-05-23T22:15:56.968Z,72.30
2017-05-23T22:18:23.650Z,72.20
2017-05-23T22:20:50.386Z,72.20
2017-05-23T22:23:17.113Z,72.30
2017-05-23T22:25:43.823Z,72.60
2017-05-23T22:28:10.583Z,72.60
2017-05-23T22:30:44.247Z,73.10
2017-05-23T22:33:11.012Z,73.60
2017-05-23T22:35:37.693Z,74.20
2017-05-23T22:38:04.427Z,74.20
2017-05-23T22:40:31.166Z,74.50
2017-05-23T22:42:57.873Z,74.60
2017-05-23T22:45:24.553Z,74.70
2017-05-23T22:47:51.277Z,75.20
2017-05-23T22:50:17.973Z,75.70
2017-05-23T22:52:44.722Z,76.40
2017-05-23T22:55:11.433Z,76.10
2017-05-23T22:57:38.121Z,76.40
2017-05-23T23:00:04.857Z,75.90
2017-05-23T23:02:31.543Z,76.00
2017-05-23T23:04:58.281Z,76.20
2017-05-23T23:07:25.002Z,76.40
2017-05-23T23:09:51.683Z,76.20
2017-05-23T23:12:18.418Z,76.50
2017-05-23T23:14:45.118Z,77.00
2017-05-23T23:17:11.813Z,77.10
2017-05-23T23:19:38.551Z,77.70
2017-05-23T23:22:05.273Z,79.40
2017-05-23T23:24:31.968Z,81.40
2017-05-23T23:26:58.711Z,87.60
2017-05-23T23:29:25.391Z,89.10
2017-05-23T23:31:52.126Z,89.70
2017-05-23T23:34:18.843Z,90.90
2017-05-23T23:36:45.530Z,90.00
2017-05-23T23:39:12.271Z,90.70
2017-05-23T23:41:38.957Z,91.10
2017-05-23T23:44:05.661Z,90.80
2017-05-23T23:46:32.389Z,91.20
2017-05-23T23:48:59.078Z,91.70
2017-05-23T23:51:25.762Z,91.60
2017-05-23T23:53:52.497Z,91.50
2017-05-23T23:56:19.181Z,91.60
2017-05-23T23:58:45.882Z,91.70
